Time;durP1;ratioP1;P1;durP2;ratioP2;P2;SDS_P1;SDS_P2;PMS_P1;PMS_P2;Temp;Humidity;BMP_temperature;BMP_pressure;BME280_temperature;BME280_humidity;BME280_pressure;Samples;Min_cycle;Max_cycle;Signal;HPM_P1;HPM_P2
2022/03/21 00:00:55;;;;;;;35.97;24.17;;;;;;;;;;5061803;28;20040;-31
2022/03/21 00:03:24;;;;;;;33.05;24.15;;;;;;;;;;5055515;28;20218;-30
2022/03/21 00:05:50;;;;;;;33.95;23.55;;;;;;;;;;5054768;28;20055;-35
2022/03/21 00:08:17;;;;;;;35.40;24.02;;;;;;;;;;5050388;28;20037;-31
2022/03/21 00:10:43;;;;;;;34.35;23.83;;;;;;;;;;5058980;28;20073;-31
2022/03/21 00:13:14;;;;;;;38.03;24.25;;;;;;;;;;5061249;28;20036;-32
2022/03/21 00:15:40;;;;;;;33.47;23.42;;;;;;;;;;5069987;28;20047;-32
2022/03/21 00:18:06;;;;;;;29.77;22.85;;;;;;;;;;5061932;28;20036;-31
2022/03/21 00:20:33;;;;;;;31.02;21.70;;;;;;;;;;5062162;28;20523;-33
2022/03/21 00:22:59;;;;;;;30.58;21.88;;;;;;;;;;5035862;28;20051;-30
2022/03/21 00:25:26;;;;;;;33.35;21.42;;;;;;;;;;5053848;28;20439;-32
2022/03/21 00:27:52;;;;;;;30.75;21.48;;;;;;;;;;5056044;28;20063;-33
2022/03/21 00:30:18;;;;;;;29.00;19.30;;;;;;;;;;5053414;28;20037;-32
2022/03/21 00:32:44;;;;;;;28.67;19.63;;;;;;;;;;5072501;28;20049;-27
2022/03/21 00:35:15;;;;;;;31.35;19.48;;;;;;;;;;5064073;28;20430;-34
2022/03/21 00:37:41;;;;;;;26.52;17.98;;;;;;;;;;5032469;28;20103;-32
2022/03/21 00:40:08;;;;;;;25.88;17.98;;;;;;;;;;5058668;28;20041;-31
2022/03/21 00:42:35;;;;;;;28.85;17.77;;;;;;;;;;5053187;28;20044;-33
2022/03/21 00:45:02;;;;;;;24.92;15.77;;;;;;;;;;5056428;28;20045;-33
2022/03/21 00:47:28;;;;;;;23.08;15.63;;;;;;;;;;5050009;28;20097;-30
2022/03/21 00:49:54;;;;;;;21.35;15.43;;;;;;;;;;5068502;28;20382;-34
2022/03/21 00:52:21;;;;;;;21.25;14.10;;;;;;;;;;5052724;28;20490;-31
2022/03/21 00:54:47;;;;;;;23.65;14.98;;;;;;;;;;5056067;28;20410;-31
2022/03/21 00:57:13;;;;;;;23.35;14.65;;;;;;;;;;5050245;28;20044;-32
2022/03/21 00:59:39;;;;;;;23.20;14.88;;;;;;;;;;5058297;28;20033;-32
2022/03/21 01:02:06;;;;;;;21.17;13.85;;;;;;;;;;5051081;28;20045;-30
2022/03/21 01:04:32;;;;;;;23.45;15.52;;;;;;;;;;5053645;28;20046;-30
2022/03/21 01:06:58;;;;;;;21.60;15.98;;;;;;;;;;5054038;28;20128;-30
2022/03/21 01:09:24;;;;;;;21.92;13.98;;;;;;;;;;5062546;28;20036;-30
2022/03/21 01:11:50;;;;;;;24.40;14.50;;;;;;;;;;5068674;28;20041;-29
2022/03/21 01:14:16;;;;;;;19.95;13.73;;;;;;;;;;5067861;28;20040;-32
2022/03/21 01:16:42;;;;;;;22.65;13.70;;;;;;;;;;5054188;28;20040;-29
2022/03/21 01:19:09;;;;;;;21.38;14.68;;;;;;;;;;5068435;28;20162;-30
2022/03/21 01:21:35;;;;;;;24.33;15.02;;;;;;;;;;5046743;28;20507;-31
2022/03/21 01:24:01;;;;;;;20.88;13.75;;;;;;;;;;5067107;28;20036;-30
2022/03/21 01:26:27;;;;;;;18.23;13.38;;;;;;;;;;5065940;28;20464;-30
2022/03/21 01:28:53;;;;;;;21.05;13.30;;;;;;;;;;5065371;28;20107;-30
2022/03/21 01:31:20;;;;;;;19.42;13.05;;;;;;;;;;5058045;28;20116;-31
2022/03/21 01:33:46;;;;;;;18.67;13.35;;;;;;;;;;5069403;28;20115;-31
2022/03/21 01:36:12;;;;;;;21.25;14.98;;;;;;;;;;5068656;28;20506;-33
2022/03/21 01:38:38;;;;;;;22.42;14.13;;;;;;;;;;5071514;28;20518;-32
2022/03/21 01:41:04;;;;;;;18.73;13.68;;;;;;;;;;5070604;28;20514;-30
2022/03/21 01:43:31;;;;;;;23.05;13.85;;;;;;;;;;5061724;28;20044;-29
2022/03/21 01:45:57;;;;;;;17.05;13.30;;;;;;;;;;5063639;28;20041;-31
2022/03/21 01:48:23;;;;;;;19.35;13.40;;;;;;;;;;5054939;28;20045;-27
2022/03/21 01:50:49;;;;;;;20.48;14.02;;;;;;;;;;5055396;28;20482;-26
2022/03/21 01:56:00;;;;;;;21.30;14.32;;;;;;;;;;5063452;28;20051;-27
2022/03/21 01:58:30;;;;;;;22.27;15.35;;;;;;;;;;5077361;28;20043;-32
2022/03/21 02:00:56;;;;;;;21.20;14.77;;;;;;;;;;5074826;28;20060;-27
2022/03/21 02:03:22;;;;;;;20.92;14.00;;;;;;;;;;5074171;28;20041;-27
2022/03/21 02:05:49;;;;;;;20.30;14.70;;;;;;;;;;5074470;28;20080;-25
2022/03/21 02:08:15;;;;;;;24.23;15.38;;;;;;;;;;5054911;28;20129;-27
2022/03/21 02:10:45;;;;;;;21.05;15.05;;;;;;;;;;5073732;28;20047;-33
2022/03/21 02:13:13;;;;;;;20.92;15.85;;;;;;;;;;5061502;28;20044;-27
2022/03/21 02:15:39;;;;;;;24.50;15.93;;;;;;;;;;5054187;28;20037;-35
2022/03/21 02:18:05;;;;;;;25.27;16.23;;;;;;;;;;5066364;28;20044;-29
2022/03/21 02:20:32;;;;;;;23.15;15.35;;;;;;;;;;5058637;28;20457;-29
2022/03/21 02:23:19;;;;;;;22.83;15.95;;;;;;;;;;5072663;28;20044;-31
2022/03/21 02:25:46;;;;;;;25.40;17.20;;;;;;;;;;5063704;28;20044;-30
2022/03/21 02:28:15;;;;;;;24.23;16.45;;;;;;;;;;5061514;28;20045;-30
2022/03/21 02:30:48;;;;;;;22.95;16.67;;;;;;;;;;5077889;28;20028;-30
2022/03/21 02:33:16;;;;;;;22.70;15.48;;;;;;;;;;5055032;28;20094;-32
2022/03/21 02:35:44;;;;;;;20.60;14.75;;;;;;;;;;5064482;28;20510;-31
2022/03/21 02:38:11;;;;;;;20.83;14.25;;;;;;;;;;5053293;28;20087;-30
2022/03/21 02:40:37;;;;;;;19.73;14.70;;;;;;;;;;5059581;28;20521;-31
2022/03/21 02:43:04;;;;;;;20.60;14.50;;;;;;;;;;5062854;28;20041;-32
2022/03/21 02:45:30;;;;;;;20.20;14.75;;;;;;;;;;5067940;28;20389;-30
2022/03/21 02:47:56;;;;;;;22.50;14.57;;;;;;;;;;5054208;28;20111;-32
2022/03/21 02:50:26;;;;;;;18.52;12.52;;;;;;;;;;5063954;28;20036;-32
2022/03/21 02:52:53;;;;;;;18.02;12.85;;;;;;;;;;5072680;28;20064;-30
2022/03/21 02:55:20;;;;;;;23.02;14.07;;;;;;;;;;5063097;28;20041;-31
2022/03/21 02:57:46;;;;;;;19.83;13.13;;;;;;;;;;5061455;28;20525;-30
2022/03/21 03:00:12;;;;;;;22.92;13.85;;;;;;;;;;5072484;28;20040;-29
2022/03/21 03:02:39;;;;;;;18.55;14.43;;;;;;;;;;5072943;28;20045;-30
2022/03/21 03:05:05;;;;;;;18.77;14.48;;;;;;;;;;5067241;28;20079;-31
2022/03/21 03:07:31;;;;;;;22.13;14.15;;;;;;;;;;5069459;28;20476;-31
2022/03/21 03:09:57;;;;;;;18.40;13.98;;;;;;;;;;5052516;28;20147;-30
2022/03/21 03:12:23;;;;;;;28.92;15.63;;;;;;;;;;5056127;28;20032;-31
2022/03/21 03:14:49;;;;;;;19.58;14.20;;;;;;;;;;5068766;28;20036;-29
2022/03/21 03:17:16;;;;;;;20.60;14.40;;;;;;;;;;5074756;28;20132;-29
2022/03/21 03:19:42;;;;;;;20.77;13.40;;;;;;;;;;5046257;28;20043;-33
2022/03/21 03:22:09;;;;;;;23.73;15.63;;;;;;;;;;5060413;28;20052;-32
2022/03/21 03:24:35;;;;;;;21.92;13.85;;;;;;;;;;5064116;28;20128;-30
2022/03/21 03:27:02;;;;;;;19.83;14.68;;;;;;;;;;5063799;28;20319;-31
2022/03/21 03:29:28;;;;;;;20.63;13.80;;;;;;;;;;5052849;28;20029;-30
2022/03/21 03:31:54;;;;;;;26.92;15.70;;;;;;;;;;5052432;28;20052;-32
2022/03/21 03:34:20;;;;;;;19.60;14.80;;;;;;;;;;5060736;28;20040;-31
2022/03/21 03:36:47;;;;;;;20.35;13.50;;;;;;;;;;5072156;28;20036;-30
2022/03/21 03:39:14;;;;;;;20.10;14.57;;;;;;;;;;5055336;28;20049;-32
2022/03/21 03:41:41;;;;;;;18.63;13.82;;;;;;;;;;5072292;28;20040;-32
2022/03/21 03:44:09;;;;;;;22.33;13.45;;;;;;;;;;5071461;28;20082;-32
2022/03/21 03:46:35;;;;;;;23.20;14.73;;;;;;;;;;5071164;28;20044;-31
2022/03/21 03:49:01;;;;;;;22.48;13.43;;;;;;;;;;5072043;28;20036;-31
2022/03/21 03:51:27;;;;;;;22.05;13.93;;;;;;;;;;5061672;28;20080;-32
2022/03/21 03:53:53;;;;;;;18.40;13.93;;;;;;;;;;5063802;28;20039;-32
2022/03/21 03:56:19;;;;;;;19.90;13.68;;;;;;;;;;5061778;28;20395;-30
2022/03/21 03:58:45;;;;;;;19.70;14.15;;;;;;;;;;5067884;28;20177;-30
2022/03/21 04:01:12;;;;;;;18.50;13.35;;;;;;;;;;5059935;28;20612;-32
2022/03/21 04:03:46;;;;;;;21.25;14.60;;;;;;;;;;5059489;28;20043;-31
2022/03/21 04:06:16;;;;;;;21.92;13.82;;;;;;;;;;5050358;28;20043;-30
2022/03/21 04:08:42;;;;;;;23.30;13.48;;;;;;;;;;5061964;28;20036;-31
2022/03/21 04:11:08;;;;;;;20.20;12.93;;;;;;;;;;5055607;28;20048;-32
2022/03/21 04:13:34;;;;;;;21.50;13.98;;;;;;;;;;5071054;28;20402;-32
2022/03/21 04:16:00;;;;;;;20.10;13.02;;;;;;;;;;5053013;28;20036;-31
2022/03/21 04:18:27;;;;;;;22.40;14.18;;;;;;;;;;5055195;28;20032;-33
2022/03/21 04:20:56;;;;;;;24.13;13.40;;;;;;;;;;5061831;28;20036;-31
2022/03/21 04:23:22;;;;;;;19.35;13.68;;;;;;;;;;5060406;28;20036;-32
2022/03/21 04:25:48;;;;;;;19.75;12.68;;;;;;;;;;5071067;28;20090;-31
2022/03/21 04:28:15;;;;;;;19.23;13.07;;;;;;;;;;5059967;28;20490;-33
2022/03/21 04:30:41;;;;;;;20.65;13.32;;;;;;;;;;5056990;28;20038;-30
2022/03/21 04:33:12;;;;;;;17.92;12.43;;;;;;;;;;5052482;28;20122;-32
2022/03/21 04:35:38;;;;;;;21.30;13.65;;;;;;;;;;5064317;28;20039;-31
2022/03/21 04:38:12;;;;;;;21.05;14.45;;;;;;;;;;5070530;28;20036;-32
2022/03/21 04:40:39;;;;;;;20.88;13.98;;;;;;;;;;5064210;28;20037;-29
2022/03/21 04:43:06;;;;;;;21.67;13.43;;;;;;;;;;5070256;28;20051;-30
2022/03/21 04:45:32;;;;;;;21.67;14.38;;;;;;;;;;5059413;28;20123;-35
2022/03/21 04:47:58;;;;;;;21.80;14.38;;;;;;;;;;5065029;28;20041;-30
2022/03/21 04:50:25;;;;;;;23.00;14.93;;;;;;;;;;5062736;28;20044;-31
2022/03/21 04:52:51;;;;;;;20.20;13.10;;;;;;;;;;5062485;28;20037;-32
2022/03/21 04:55:17;;;;;;;23.30;15.35;;;;;;;;;;5062947;28;20041;-31
2022/03/21 04:57:43;;;;;;;21.83;14.55;;;;;;;;;;5058110;28;20111;-31
2022/03/21 05:00:09;;;;;;;22.92;15.30;;;;;;;;;;5056196;28;20037;-29
2022/03/21 05:02:35;;;;;;;18.67;13.02;;;;;;;;;;5065883;28;20549;-30
2022/03/21 05:05:02;;;;;;;22.00;13.70;;;;;;;;;;5059265;28;20508;-30
2022/03/21 05:07:29;;;;;;;22.65;14.65;;;;;;;;;;5067084;28;20094;-30
2022/03/21 05:09:55;;;;;;;20.23;13.10;;;;;;;;;;5053487;28;20125;-32
2022/03/21 05:12:22;;;;;;;21.20;14.40;;;;;;;;;;5056381;28;20041;-31
2022/03/21 05:14:49;;;;;;;26.00;17.35;;;;;;;;;;5068252;28;20082;-31
2022/03/21 05:17:17;;;;;;;24.40;15.70;;;;;;;;;;5055151;28;20033;-31
2022/03/21 05:19:44;;;;;;;26.38;15.85;;;;;;;;;;5054082;28;20040;-30
2022/03/21 05:22:10;;;;;;;28.80;17.30;;;;;;;;;;5061454;28;20494;-30
2022/03/21 05:35:52;;;;;;;23.58;15.88;;;;;;;;;;5061671;28;20065;-31
2022/03/21 05:35:57;;;;;;;24.25;16.58;;;;;;;;;;5058607;28;20047;-29
2022/03/21 05:38:24;;;;;;;27.70;17.23;;;;;;;;;;5061348;28;20410;-29
2022/03/21 05:40:51;;;;;;;21.50;15.52;;;;;;;;;;5070541;28;20045;-32
2022/03/21 05:43:17;;;;;;;23.95;15.77;;;;;;;;;;5052978;28;20057;-30
2022/03/21 05:45:43;;;;;;;22.80;15.88;;;;;;;;;;5054420;28;20041;-29
2022/03/21 05:50:54;;;;;;;22.55;14.88;;;;;;;;;;5057184;28;20083;-30
2022/03/21 05:53:20;;;;;;;21.73;14.80;;;;;;;;;;5060379;28;20040;-30
2022/03/21 05:55:46;;;;;;;24.42;15.45;;;;;;;;;;5040462;28;20033;-30
2022/03/21 05:58:13;;;;;;;26.83;15.05;;;;;;;;;;5065215;28;20037;-30
2022/03/21 06:00:40;;;;;;;28.13;15.57;;;;;;;;;;5063716;28;20560;-31
2022/03/21 06:03:08;;;;;;;22.23;15.13;;;;;;;;;;5060439;28;20048;-32
2022/03/21 06:05:37;;;;;;;23.77;15.40;;;;;;;;;;5061750;28;20040;-33
2022/03/21 06:08:03;;;;;;;25.90;15.43;;;;;;;;;;5065314;28;20063;-31
2022/03/21 06:10:30;;;;;;;25.63;15.40;;;;;;;;;;5068529;28;20082;-30
2022/03/21 06:12:56;;;;;;;23.33;14.73;;;;;;;;;;5064130;28;20063;-30
2022/03/21 06:15:22;;;;;;;23.77;14.98;;;;;;;;;;5056219;28;20398;-31
2022/03/21 06:17:48;;;;;;;22.25;14.63;;;;;;;;;;5058874;28;20048;-30
2022/03/21 06:20:18;;;;;;;20.83;13.45;;;;;;;;;;5053074;28;20120;-31
2022/03/21 06:22:44;;;;;;;18.75;12.02;;;;;;;;;;5059242;28;20041;-31
2022/03/21 06:25:11;;;;;;;13.68;10.23;;;;;;;;;;5053677;28;20071;-30
2022/03/21 06:27:38;;;;;;;13.75;10.57;;;;;;;;;;5073976;28;20045;-30
2022/03/21 06:30:05;;;;;;;16.35;10.18;;;;;;;;;;5064994;28;20036;-30
2022/03/21 06:32:31;;;;;;;13.13;9.65;;;;;;;;;;5064783;28;20428;-30
2022/03/21 06:34:57;;;;;;;14.20;10.20;;;;;;;;;;5048169;28;20461;-29
2022/03/21 06:37:23;;;;;;;17.23;10.55;;;;;;;;;;5073285;28;20028;-31
2022/03/21 06:39:49;;;;;;;13.75;9.77;;;;;;;;;;5057038;28;20126;-30
2022/03/21 06:42:16;;;;;;;15.75;10.40;;;;;;;;;;5069269;28;20309;-31
2022/03/21 06:44:43;;;;;;;12.15;9.73;;;;;;;;;;5053985;28;20036;-29
2022/03/21 06:47:09;;;;;;;14.75;10.98;;;;;;;;;;5053088;28;20045;-30
2022/03/21 06:49:36;;;;;;;13.60;10.60;;;;;;;;;;5057298;28;20486;-29
2022/03/21 06:52:02;;;;;;;15.93;11.05;;;;;;;;;;5060211;28;20145;-30
2022/03/21 06:54:32;;;;;;;14.38;10.27;;;;;;;;;;5073564;28;20068;-29
2022/03/21 06:56:58;;;;;;;16.77;11.75;;;;;;;;;;5068143;28;20036;-30
2022/03/21 06:59:24;;;;;;;16.80;12.00;;;;;;;;;;5066253;28;20051;-29
2022/03/21 07:01:50;;;;;;;18.77;13.18;;;;;;;;;;5057679;28;20048;-29
2022/03/21 07:04:17;;;;;;;16.45;12.60;;;;;;;;;;5056928;28;20036;-29
2022/03/21 07:06:43;;;;;;;18.88;12.65;;;;;;;;;;5057022;28;20037;-29
2022/03/21 07:09:09;;;;;;;22.17;13.85;;;;;;;;;;5056185;28;20032;-31
2022/03/21 07:11:35;;;;;;;18.25;12.15;;;;;;;;;;5034796;28;20082;-29
2022/03/21 07:14:04;;;;;;;14.73;11.85;;;;;;;;;;5064371;28;20036;-30
2022/03/21 07:16:30;;;;;;;17.65;12.13;;;;;;;;;;5069461;28;20105;-29
2022/03/21 07:18:56;;;;;;;21.17;14.70;;;;;;;;;;5066111;28;20048;-31
2022/03/21 07:21:22;;;;;;;25.63;16.15;;;;;;;;;;5063246;28;20123;-29
2022/03/21 07:23:48;;;;;;;18.95;13.55;;;;;;;;;;5036446;28;20135;-28
2022/03/21 07:26:14;;;;;;;28.40;19.10;;;;;;;;;;5055200;28;20041;-29
2022/03/21 07:28:41;;;;;;;27.27;17.90;;;;;;;;;;5058816;28;20051;-29
2022/03/21 07:31:11;;;;;;;24.33;16.38;;;;;;;;;;5052343;28;20372;-29
2022/03/21 07:33:43;;;;;;;32.63;20.02;;;;;;;;;;5059450;28;20037;-30
2022/03/21 07:36:09;;;;;;;29.90;19.23;;;;;;;;;;5062459;28;20060;-29
2022/03/21 07:38:36;;;;;;;44.53;25.35;;;;;;;;;;5078290;28;20048;-30
2022/03/21 07:41:05;;;;;;;28.55;19.05;;;;;;;;;;5053536;28;20038;-27
2022/03/21 07:43:31;;;;;;;41.00;23.95;;;;;;;;;;5053422;28;20498;-27
2022/03/21 07:48:42;;;;;;;35.50;21.52;;;;;;;;;;5052925;28;20063;-28
2022/03/21 07:51:09;;;;;;;33.25;21.85;;;;;;;;;;5052514;28;20045;-29
2022/03/21 07:53:35;;;;;;;26.45;17.75;;;;;;;;;;5052565;28;20052;-26
2022/03/21 07:56:01;;;;;;;28.45;18.90;;;;;;;;;;5052608;28;20080;-27
2022/03/21 07:58:28;;;;;;;27.52;17.95;;;;;;;;;;5034764;28;20063;-29
2022/03/21 08:00:56;;;;;;;25.27;18.08;;;;;;;;;;5071663;28;20037;-27
2022/03/21 08:03:22;;;;;;;24.60;17.88;;;;;;;;;;5067013;28;20504;-29
2022/03/21 08:05:49;;;;;;;25.50;17.60;;;;;;;;;;5061550;28;20428;-34
2022/03/21 08:08:16;;;;;;;26.08;17.25;;;;;;;;;;5057920;28;20032;-33
2022/03/21 08:10:42;;;;;;;25.95;16.88;;;;;;;;;;5064354;28;20067;-32
2022/03/21 08:13:08;;;;;;;22.48;17.05;;;;;;;;;;5062376;28;20040;-30
2022/03/21 08:15:36;;;;;;;22.25;17.17;;;;;;;;;;5060760;28;20037;-31
2022/03/21 08:18:03;;;;;;;25.30;16.25;;;;;;;;;;5052202;28;20098;-31
2022/03/21 08:20:34;;;;;;;24.30;16.00;;;;;;;;;;5059135;28;20055;-31
2022/03/21 08:23:02;;;;;;;26.17;16.80;;;;;;;;;;5053127;28;20047;-31
2022/03/21 08:25:30;;;;;;;21.02;15.00;;;;;;;;;;5060181;28;20037;-31
2022/03/21 08:27:56;;;;;;;20.70;14.02;;;;;;;;;;5054003;28;20053;-30
2022/03/21 08:30:22;;;;;;;20.83;15.65;;;;;;;;;;5068397;28;20033;-32
2022/03/21 08:32:49;;;;;;;19.73;14.88;;;;;;;;;;5051118;28;20041;-32
2022/03/21 08:35:17;;;;;;;20.48;15.18;;;;;;;;;;5066531;28;20479;-31
2022/03/21 08:37:43;;;;;;;20.77;14.05;;;;;;;;;;5064738;28;20045;-31
2022/03/21 08:40:10;;;;;;;19.58;14.50;;;;;;;;;;5058049;28;20549;-30
2022/03/21 08:42:36;;;;;;;22.90;15.32;;;;;;;;;;5061473;28;20498;-26
2022/03/21 08:45:02;;;;;;;16.85;14.20;;;;;;;;;;5055869;28;20140;-30
2022/03/21 08:47:28;;;;;;;19.02;13.88;;;;;;;;;;5073940;28;20087;-31
2022/03/21 08:49:54;;;;;;;21.65;14.70;;;;;;;;;;5048986;28;20041;-31
2022/03/21 08:52:21;;;;;;;17.27;14.65;;;;;;;;;;5040609;28;20044;-32
2022/03/21 08:54:47;;;;;;;18.83;14.70;;;;;;;;;;5060260;28;20174;-30
2022/03/21 08:57:14;;;;;;;20.88;15.10;;;;;;;;;;5058281;28;20408;-32
2022/03/21 08:59:40;;;;;;;17.75;14.68;;;;;;;;;;5061763;28;20513;-30
2022/03/21 09:02:08;;;;;;;19.15;14.90;;;;;;;;;;5062094;28;20044;-31
2022/03/21 09:04:35;;;;;;;19.10;14.73;;;;;;;;;;5052787;28;20041;-30
2022/03/21 09:07:01;;;;;;;17.38;13.88;;;;;;;;;;5070300;28;20094;-32
2022/03/21 09:09:27;;;;;;;22.02;14.90;;;;;;;;;;5052305;28;20368;-32
2022/03/21 09:11:53;;;;;;;18.95;14.73;;;;;;;;;;5064191;28;20090;-30
2022/03/21 09:14:20;;;;;;;20.42;14.50;;;;;;;;;;5070104;28;20047;-31
2022/03/21 09:16:46;;;;;;;17.98;14.45;;;;;;;;;;5061749;28;20486;-31
2022/03/21 09:19:13;;;;;;;19.42;14.68;;;;;;;;;;5055258;28;20509;-31
2022/03/21 09:21:39;;;;;;;19.75;14.85;;;;;;;;;;5059199;28;20054;-30
2022/03/21 09:24:05;;;;;;;17.38;14.55;;;;;;;;;;5055191;28;20124;-31
2022/03/21 09:26:31;;;;;;;18.63;15.07;;;;;;;;;;5070438;28;20036;-30
2022/03/21 09:29:03;;;;;;;22.27;15.48;;;;;;;;;;5061493;28;20040;-28
2022/03/21 09:31:29;;;;;;;16.85;14.82;;;;;;;;;;5059341;28;20044;-36
2022/03/21 09:33:55;;;;;;;15.98;13.85;;;;;;;;;;5057381;28;20914;-31
2022/03/21 09:36:21;;;;;;;18.50;14.88;;;;;;;;;;5060715;28;20036;-33
2022/03/21 09:38:48;;;;;;;19.60;14.88;;;;;;;;;;5057417;28;20044;-33
2022/03/21 09:41:14;;;;;;;18.13;14.82;;;;;;;;;;5066511;28;20036;-32
2022/03/21 09:43:41;;;;;;;17.58;14.63;;;;;;;;;;5060930;28;20037;-32
2022/03/21 09:46:08;;;;;;;21.67;16.00;;;;;;;;;;5056392;28;20115;-33
2022/03/21 09:48:35;;;;;;;19.98;16.30;;;;;;;;;;5061133;28;20116;-34
2022/03/21 09:51:04;;;;;;;19.20;15.90;;;;;;;;;;5061116;28;20036;-31
2022/03/21 09:53:30;;;;;;;19.15;15.35;;;;;;;;;;5059062;28;20513;-30
2022/03/21 09:55:57;;;;;;;19.85;16.02;;;;;;;;;;5062544;28;20521;-32
2022/03/21 09:58:23;;;;;;;19.88;15.60;;;;;;;;;;5062038;28;20045;-32
2022/03/21 10:00:49;;;;;;;18.30;16.25;;;;;;;;;;5062264;28;20063;-33
2022/03/21 10:03:18;;;;;;;23.90;16.90;;;;;;;;;;5063012;28;20387;-31
2022/03/21 10:05:52;;;;;;;20.67;17.52;;;;;;;;;;5061178;28;20372;-30
2022/03/21 10:08:25;;;;;;;19.40;16.73;;;;;;;;;;5065112;28;20397;-30
2022/03/21 10:10:51;;;;;;;19.23;16.15;;;;;;;;;;5069682;28;20036;-32
2022/03/21 10:13:18;;;;;;;19.73;16.40;;;;;;;;;;5053126;28;20131;-30
2022/03/21 10:15:44;;;;;;;23.08;18.35;;;;;;;;;;5056554;28;20095;-30
2022/03/21 10:18:11;;;;;;;23.33;18.00;;;;;;;;;;5067276;28;20040;-31
2022/03/21 10:20:38;;;;;;;19.98;16.33;;;;;;;;;;5063557;28;20124;-30
2022/03/21 10:23:23;;;;;;;20.98;17.77;;;;;;;;;;5057156;28;20040;-31
2022/03/21 10:25:52;;;;;;;21.23;17.65;;;;;;;;;;5058113;28;20036;-33
2022/03/21 10:28:35;;;;;;;22.75;18.40;;;;;;;;;;5059846;28;20040;-32
2022/03/21 10:31:02;;;;;;;25.48;18.77;;;;;;;;;;5060888;28;20118;-32
2022/03/21 10:33:28;;;;;;;25.17;19.98;;;;;;;;;;5060792;28;20498;-33
2022/03/21 10:35:54;;;;;;;22.88;18.73;;;;;;;;;;5056086;28;20064;-31
2022/03/21 10:38:31;;;;;;;29.98;20.60;;;;;;;;;;5062318;28;20040;-32
2022/03/21 10:40:57;;;;;;;23.23;19.50;;;;;;;;;;5057642;28;20371;-32
2022/03/21 10:43:25;;;;;;;25.88;20.73;;;;;;;;;;5066655;28;20039;-30
2022/03/21 10:45:52;;;;;;;23.67;19.98;;;;;;;;;;5063651;28;20115;-31
2022/03/21 10:48:18;;;;;;;25.98;19.83;;;;;;;;;;5064258;28;20043;-31
2022/03/21 10:50:46;;;;;;;24.48;20.35;;;;;;;;;;5056027;28;20114;-31
2022/03/21 10:53:22;;;;;;;23.40;19.48;;;;;;;;;;5062077;28;20044;-32
2022/03/21 10:55:49;;;;;;;26.05;20.73;;;;;;;;;;5034244;28;20094;-32
2022/03/21 10:58:17;;;;;;;24.88;19.55;;;;;;;;;;5021140;28;20316;-34
2022/03/21 11:00:43;;;;;;;22.23;18.83;;;;;;;;;;5059830;28;20398;-33
2022/03/21 11:03:15;;;;;;;26.08;20.60;;;;;;;;;;5060919;28;20036;-36
2022/03/21 11:05:48;;;;;;;24.20;20.33;;;;;;;;;;5066695;28;20037;-34
2022/03/21 11:08:15;;;;;;;24.03;19.63;;;;;;;;;;5028997;28;20295;-32
2022/03/21 11:10:42;;;;;;;26.90;21.25;;;;;;;;;;5049126;28;20036;-30
2022/03/21 11:13:09;;;;;;;24.50;21.10;;;;;;;;;;5046568;28;20044;-36
2022/03/21 11:15:36;;;;;;;25.63;20.15;;;;;;;;;;5069741;28;20048;-33
2022/03/21 11:18:03;;;;;;;25.02;20.55;;;;;;;;;;5042135;28;20379;-32
2022/03/21 11:20:30;;;;;;;24.98;20.65;;;;;;;;;;5069127;28;20029;-34
2022/03/21 11:22:57;;;;;;;22.98;19.95;;;;;;;;;;5072440;28;20045;-33
2022/03/21 11:25:29;;;;;;;24.67;20.42;;;;;;;;;;5056176;28;20037;-34
2022/03/21 11:28:01;;;;;;;26.90;20.15;;;;;;;;;;5064525;28;20391;-31
2022/03/21 11:30:46;;;;;;;26.48;21.70;;;;;;;;;;5043219;28;20398;-34
2022/03/21 11:33:17;;;;;;;24.00;20.20;;;;;;;;;;5043200;28;20045;-32
2022/03/21 11:35:49;;;;;;;23.65;21.10;;;;;;;;;;5063946;28;20036;-31
2022/03/21 11:38:22;;;;;;;25.83;21.80;;;;;;;;;;5079708;28;20570;-31
2022/03/21 11:40:49;;;;;;;22.40;20.00;;;;;;;;;;5057045;28;20047;-33
2022/03/21 11:43:18;;;;;;;24.65;22.13;;;;;;;;;;5059815;28;20033;-33
2022/03/21 11:45:50;;;;;;;22.27;19.80;;;;;;;;;;5070776;28;20033;-32
2022/03/21 11:48:19;;;;;;;22.95;20.58;;;;;;;;;;5053979;28;20098;-33
2022/03/21 11:51:11;;;;;;;26.30;21.40;;;;;;;;;;5065639;28;20062;-32
2022/03/21 11:53:45;;;;;;;23.08;20.00;;;;;;;;;;5059884;28;20067;-31
2022/03/21 11:56:15;;;;;;;23.15;20.33;;;;;;;;;;5063253;28;20402;-32
2022/03/21 11:58:41;;;;;;;24.38;20.13;;;;;;;;;;5038067;28;20413;-33
2022/03/21 12:01:07;;;;;;;26.23;20.88;;;;;;;;;;5070967;28;20064;-30
2022/03/21 12:03:35;;;;;;;24.35;20.40;;;;;;;;;;5092781;28;20500;-29
2022/03/21 12:06:22;;;;;;;22.88;20.33;;;;;;;;;;5093328;28;20044;-31
2022/03/21 12:08:55;;;;;;;23.60;19.95;;;;;;;;;;5092973;28;20066;-31
2022/03/21 12:11:39;;;;;;;21.58;19.25;;;;;;;;;;5092804;28;20069;-29
2022/03/21 12:14:24;;;;;;;23.58;20.55;;;;;;;;;;5093283;28;20044;-30
2022/03/21 12:17:02;;;;;;;25.15;19.52;;;;;;;;;;5092327;28;20043;-30
2022/03/21 12:19:47;;;;;;;22.35;20.05;;;;;;;;;;5080024;28;20378;-30
2022/03/21 12:22:35;;;;;;;24.15;20.80;;;;;;;;;;5072178;28;20088;-29
2022/03/21 12:25:02;;;;;;;22.52;20.23;;;;;;;;;;5071686;28;20410;-33
2022/03/21 12:27:40;;;;;;;21.70;19.48;;;;;;;;;;5066890;28;20440;-30
2022/03/21 12:30:26;;;;;;;23.92;19.50;;;;;;;;;;5066188;28;20486;-34
2022/03/21 12:33:13;;;;;;;23.13;20.73;;;;;;;;;;5056441;28;20110;-30
2022/03/21 12:35:40;;;;;;;23.00;20.63;;;;;;;;;;5051556;28;20041;-29
2022/03/21 12:38:10;;;;;;;22.67;19.90;;;;;;;;;;5051199;28;20079;-30
2022/03/21 12:40:38;;;;;;;23.10;20.63;;;;;;;;;;5051570;28;20493;-30
2022/03/21 12:43:04;;;;;;;21.90;19.63;;;;;;;;;;5051729;28;20037;-30
2022/03/21 12:45:31;;;;;;;23.10;20.70;;;;;;;;;;5051445;28;20037;-29
2022/03/21 12:48:05;;;;;;;23.63;20.25;;;;;;;;;;5053727;28;20051;-30
2022/03/21 12:50:32;;;;;;;23.17;20.30;;;;;;;;;;5071679;28;20040;-30
2022/03/21 12:52:59;;;;;;;23.63;20.70;;;;;;;;;;5071578;28;20089;-30
2022/03/21 12:55:26;;;;;;;23.63;20.90;;;;;;;;;;5071720;28;20040;-30
2022/03/21 12:57:59;;;;;;;22.45;20.25;;;;;;;;;;5072554;28;20499;-30
2022/03/21 13:00:26;;;;;;;25.65;20.73;;;;;;;;;;5075927;28;20041;-29
2022/03/21 13:02:56;;;;;;;23.73;21.23;;;;;;;;;;5075535;28;20040;-29
2022/03/21 13:10:52;;;;;;;22.73;20.33;;;;;;;;;;5075760;28;20599;-30
2022/03/21 13:13:19;;;;;;;22.15;19.30;;;;;;;;;;5075172;28;20049;-30
2022/03/21 13:15:45;;;;;;;23.48;20.95;;;;;;;;;;5075244;28;20045;-29
2022/03/21 13:18:11;;;;;;;21.63;19.38;;;;;;;;;;5075135;28;20589;-30
2022/03/21 13:20:45;;;;;;;21.65;19.35;;;;;;;;;;5074756;28;20049;-29
2022/03/21 13:23:12;;;;;;;22.45;20.15;;;;;;;;;;5075977;28;20439;-30
2022/03/21 13:25:39;;;;;;;25.70;22.95;;;;;;;;;;5075172;28;20063;-30
2022/03/21 13:28:14;;;;;;;22.75;20.02;;;;;;;;;;5075139;28;20051;-30
2022/03/21 13:30:52;;;;;;;23.63;21.05;;;;;;;;;;5074716;28;20037;-30
2022/03/21 13:33:27;;;;;;;23.52;20.70;;;;;;;;;;5075080;28;20036;-30
2022/03/21 13:35:58;;;;;;;22.50;20.10;;;;;;;;;;5075647;28;20044;-30
2022/03/21 13:38:25;;;;;;;22.50;20.15;;;;;;;;;;5057789;28;20102;-31
2022/03/21 13:40:52;;;;;;;23.13;20.63;;;;;;;;;;5059491;28;20076;-29
2022/03/21 13:43:28;;;;;;;23.75;21.25;;;;;;;;;;5055198;28;20370;-31
2022/03/21 13:45:55;;;;;;;23.08;20.42;;;;;;;;;;5055546;28;20045;-31
2022/03/21 13:48:32;;;;;;;22.27;20.00;;;;;;;;;;5057910;28;20498;-29
2022/03/21 13:51:17;;;;;;;24.70;21.92;;;;;;;;;;5075589;28;20374;-31
2022/03/21 13:53:43;;;;;;;23.17;20.08;;;;;;;;;;5075186;28;20041;-29
2022/03/21 13:56:09;;;;;;;24.67;21.92;;;;;;;;;;5075443;28;20059;-31
2022/03/21 13:58:37;;;;;;;25.40;20.20;;;;;;;;;;5075483;28;20044;-30
2022/03/21 14:01:17;;;;;;;23.10;20.27;;;;;;;;;;5075502;28;20087;-30
2022/03/21 14:03:47;;;;;;;24.20;21.50;;;;;;;;;;5075118;28;20041;-31
2022/03/21 14:06:13;;;;;;;24.02;21.08;;;;;;;;;;5075140;28;20036;-30
2022/03/21 14:08:39;;;;;;;23.35;21.13;;;;;;;;;;5074905;28;20112;-31
2022/03/21 14:11:11;;;;;;;24.00;21.50;;;;;;;;;;5072112;28;20044;-29
2022/03/21 14:13:39;;;;;;;21.50;18.50;;;;;;;;;;5071860;28;20040;-32
2022/03/21 14:16:06;;;;;;;24.92;22.33;;;;;;;;;;5071296;28;20189;-30
2022/03/21 14:18:35;;;;;;;24.02;21.63;;;;;;;;;;5072618;28;20040;-31
2022/03/21 14:21:04;;;;;;;23.75;21.33;;;;;;;;;;5074353;28;20040;-30
2022/03/21 14:23:31;;;;;;;27.58;23.38;;;;;;;;;;5074738;28;20040;-29
2022/03/21 14:28:43;;;;;;;23.92;21.52;;;;;;;;;;5076946;28;20041;-31
2022/03/21 14:31:11;;;;;;;23.65;21.25;;;;;;;;;;5056139;28;20472;-31
2022/03/21 14:33:37;;;;;;;24.67;22.08;;;;;;;;;;5073005;28;20076;-28
2022/03/21 14:36:04;;;;;;;26.65;21.38;;;;;;;;;;5053748;28;20406;-29
2022/03/21 14:38:30;;;;;;;24.65;22.02;;;;;;;;;;5055595;28;20490;-29
2022/03/21 14:40:56;;;;;;;26.65;22.73;;;;;;;;;;5055282;28;20040;-29
2022/03/21 14:43:26;;;;;;;24.20;21.60;;;;;;;;;;5071745;28;20039;-29
2022/03/21 14:45:53;;;;;;;23.42;21.17;;;;;;;;;;5072745;28;20094;-32